Time;durP1;ratioP1;P1;durP2;ratioP2;P2;SDS_P1;SDS_P2;PMS_P1;PMS_P2;Temp;Humidity;BMP_temperature;BMP_pressure;BME280_temperature;BME280_humidity;BME280_pressure;Samples;Min_cycle;Max_cycle;Signal;HPM_P1;HPM_P2
2021/09/15 00:01:54;;;;;;;1.50;0.97;;;21.50;98.20;;;;;;4964125;28;20478;-80
2021/09/15 00:04:21;;;;;;;1.50;0.90;;;21.40;98.20;;;;;;4969676;28;20496;-82
2021/09/15 00:06:48;;;;;;;1.50;1.07;;;21.50;98.20;;;;;;4966234;28;20485;-81
2021/09/15 00:09:15;;;;;;;1.50;0.90;;;21.40;98.20;;;;;;4959788;28;20462;-82
2021/09/15 00:11:43;;;;;;;1.50;0.90;;;21.40;98.20;;;;;;4952560;28;21008;-81
2021/09/15 00:14:10;;;;;;;1.50;0.90;;;21.40;98.20;;;;;;4962031;28;20484;-82
2021/09/15 00:16:37;;;;;;;1.50;0.90;;;21.40;98.20;;;;;;4953000;28;20486;-82
2021/09/15 00:19:03;;;;;;;1.50;0.90;;;21.40;98.20;;;;;;4966391;28;20468;-81
2021/09/15 00:21:30;;;;;;;1.50;0.90;;;21.40;98.20;;;;;;4943787;28;20485;-82
2021/09/15 00:23:57;;;;;;;1.50;0.90;;;21.40;98.20;;;;;;4966730;28;20523;-82
2021/09/15 00:26:23;;;;;;;1.50;0.90;;;21.40;98.20;;;;;;4944124;28;20489;-82
2021/09/15 00:28:52;;;;;;;1.53;0.90;;;21.30;98.20;;;;;;4949721;28;20475;-82
2021/09/15 00:31:18;;;;;;;1.50;0.90;;;21.40;98.20;;;;;;4944370;28;20478;-82
2021/09/15 00:33:45;;;;;;;1.50;0.90;;;21.40;98.20;;;;;;4945448;28;20468;-83
2021/09/15 00:36:12;;;;;;;1.50;0.90;;;21.40;98.20;;;;;;4942971;28;20490;-82
2021/09/15 00:38:39;;;;;;;1.50;0.90;;;21.30;98.20;;;;;;4949447;28;20467;-82
2021/09/15 00:41:05;;;;;;;1.50;0.90;;;21.30;98.20;;;;;;4941363;28;20471;-82
2021/09/15 00:43:32;;;;;;;1.50;0.90;;;21.30;98.20;;;;;;4965504;28;20550;-82
2021/09/15 00:46:00;;;;;;;1.50;0.90;;;21.30;98.20;;;;;;4938146;28;20471;-82
2021/09/15 00:48:27;;;;;;;1.50;0.90;;;21.30;98.20;;;;;;4948373;28;20489;-82
2021/09/15 00:50:54;;;;;;;1.50;1.00;;;21.30;98.20;;;;;;4937258;28;20837;-82
2021/09/15 00:53:21;;;;;;;1.50;0.90;;;21.30;98.20;;;;;;4969635;28;20500;-82
2021/09/15 00:55:47;;;;;;;1.50;0.90;;;21.40;98.20;;;;;;4943643;28;20462;-82
2021/09/15 00:58:14;;;;;;;1.50;0.90;;;21.30;98.20;;;;;;4963836;28;20582;-82
2021/09/15 01:00:41;;;;;;;1.50;0.90;;;21.40;98.20;;;;;;4954798;28;20459;-80
2021/09/15 01:03:09;;;;;;;1.50;0.90;;;21.30;98.20;;;;;;4951205;28;20505;-80
2021/09/15 01:05:36;;;;;;;1.50;0.90;;;21.40;98.20;;;;;;4950824;28;20483;-80
2021/09/15 01:08:03;;;;;;;1.50;0.90;;;21.40;98.20;;;;;;4949550;28;21037;-80
2021/09/15 01:10:30;;;;;;;1.50;0.93;;;21.40;98.20;;;;;;4951451;28;20471;-81
2021/09/15 01:12:57;;;;;;;1.50;0.90;;;21.40;98.20;;;;;;4944816;28;20480;-80
2021/09/15 01:15:25;;;;;;;1.50;0.90;;;21.40;98.20;;;;;;4955354;28;20465;-80
2021/09/15 01:17:52;;;;;;;1.50;1.00;;;21.40;98.20;;;;;;4955348;28;20541;-79
2021/09/15 01:20:20;;;;;;;1.50;0.90;;;21.40;98.20;;;;;;4947917;28;20467;-80
2021/09/15 01:22:48;;;;;;;1.50;0.90;;;21.40;98.20;;;;;;4942888;28;20488;-80
2021/09/15 01:25:17;;;;;;;1.50;0.90;;;21.40;98.20;;;;;;4957418;28;20466;-80
2021/09/15 01:27:44;;;;;;;2.00;1.47;;;21.40;98.20;;;;;;4952425;28;20490;-80
2021/09/15 01:30:11;;;;;;;1.50;0.93;;;21.40;98.20;;;;;;4954264;28;20478;-80
2021/09/15 01:32:38;;;;;;;1.50;0.90;;;21.40;98.20;;;;;;4935389;28;20480;-79
2021/09/15 01:35:06;;;;;;;1.50;0.90;;;21.30;98.20;;;;;;4951085;28;20487;-80
2021/09/15 01:37:32;;;;;;;1.50;1.00;;;21.30;98.20;;;;;;4939648;28;20492;-80
2021/09/15 01:40:00;;;;;;;1.50;0.97;;;21.30;98.20;;;;;;4958571;28;20472;-83
2021/09/15 01:42:27;;;;;;;1.50;0.90;;;21.30;98.20;;;;;;4936948;28;20488;-84
2021/09/15 01:44:54;;;;;;;1.50;0.90;;;21.30;98.20;;;;;;4952912;28;20478;-81
2021/09/15 01:47:21;;;;;;;1.50;0.90;;;21.30;98.20;;;;;;4929139;28;20483;-82
2021/09/15 01:49:47;;;;;;;1.50;0.90;;;21.20;98.20;;;;;;4944085;28;20509;-83
2021/09/15 01:52:16;;;;;;;1.50;0.93;;;21.30;98.20;;;;;;4945900;28;20486;-80
2021/09/15 01:54:43;;;;;;;1.50;0.90;;;21.20;98.20;;;;;;4955952;28;20882;-80
2021/09/15 01:57:11;;;;;;;1.50;0.90;;;21.20;98.20;;;;;;4949956;28;20492;-81
2021/09/15 01:59:38;;;;;;;1.50;0.90;;;21.20;98.20;;;;;;4960786;28;20455;-80
2021/09/15 02:02:04;;;;;;;1.50;0.90;;;21.20;98.20;;;;;;4955573;28;20488;-81
2021/09/15 02:04:31;;;;;;;1.50;0.90;;;21.20;98.20;;;;;;4956970;28;20666;-80
2021/09/15 02:06:58;;;;;;;1.50;0.90;;;21.20;98.20;;;;;;4954768;28;20534;-81
2021/09/15 02:09:25;;;;;;;1.50;0.90;;;21.20;98.20;;;;;;4954278;28;20973;-80
2021/09/15 02:11:51;;;;;;;1.50;0.90;;;21.10;98.20;;;;;;4953775;28;20484;-80
2021/09/15 02:14:20;;;;;;;1.50;0.90;;;21.10;98.20;;;;;;4960676;28;20478;-81
2021/09/15 02:16:47;;;;;;;1.50;0.90;;;21.10;98.20;;;;;;4945758;28;20487;-81
2021/09/15 02:19:14;;;;;;;1.50;1.00;;;21.10;98.20;;;;;;4964834;28;20866;-80
2021/09/15 02:21:41;;;;;;;1.50;0.90;;;21.10;98.20;;;;;;4958437;28;20477;-80
2021/09/15 02:24:08;;;;;;;1.50;0.90;;;21.10;98.20;;;;;;4966885;28;20492;-80
2021/09/15 02:26:35;;;;;;;1.50;0.97;;;21.00;98.20;;;;;;4949799;28;20494;-80
2021/09/15 02:29:03;;;;;;;1.57;1.00;;;21.00;98.20;;;;;;4968316;28;20522;-81
2021/09/15 02:31:32;;;;;;;1.50;0.90;;;21.00;98.20;;;;;;4950798;28;20507;-80
2021/09/15 02:33:59;;;;;;;1.50;0.90;;;21.00;98.20;;;;;;4969524;28;20466;-81
2021/09/15 02:36:26;;;;;;;1.53;0.90;;;21.00;98.20;;;;;;4960738;28;20489;-82
2021/09/15 02:38:53;;;;;;;1.50;0.90;;;20.90;98.20;;;;;;4971722;28;20463;-82
2021/09/15 02:41:20;;;;;;;1.50;0.90;;;20.90;98.20;;;;;;4959114;28;20481;-81
2021/09/15 02:43:47;;;;;;;1.53;0.90;;;20.90;98.20;;;;;;4983315;28;20474;-82
2021/09/15 02:46:14;;;;;;;1.50;1.00;;;20.90;98.20;;;;;;4958205;28;20486;-83
2021/09/15 02:48:42;;;;;;;1.50;0.90;;;20.90;98.20;;;;;;4973337;28;20484;-82
2021/09/15 02:51:09;;;;;;;1.50;0.90;;;20.90;98.20;;;;;;4948786;28;20917;-82
2021/09/15 02:53:35;;;;;;;1.50;0.90;;;20.90;98.20;;;;;;4975476;28;20476;-81
2021/09/15 02:56:02;;;;;;;1.50;0.90;;;20.80;98.20;;;;;;4955322;28;20483;-84
2021/09/15 02:58:29;;;;;;;1.50;1.00;;;20.90;98.20;;;;;;4969025;28;20489;-82
2021/09/15 03:00:56;;;;;;;1.50;0.90;;;20.80;98.20;;;;;;4933967;28;20479;-83
2021/09/15 03:03:22;;;;;;;1.50;1.00;;;20.80;98.20;;;;;;4970901;28;20470;-84
2021/09/15 03:05:51;;;;;;;1.50;0.90;;;20.80;98.20;;;;;;4952670;28;20454;-84
2021/09/15 03:08:18;;;;;;;1.57;0.90;;;20.80;98.20;;;;;;4968056;28;20494;-82
2021/09/15 03:10:44;;;;;;;1.50;1.00;;;20.80;98.20;;;;;;4953879;28;20482;-82
2021/09/15 03:13:11;;;;;;;1.50;0.90;;;20.70;98.20;;;;;;4939335;28;20505;-83
2021/09/15 03:15:38;;;;;;;1.50;0.90;;;20.70;98.20;;;;;;4956017;28;20475;-82
2021/09/15 03:18:05;;;;;;;1.50;1.00;;;20.70;98.20;;;;;;4954820;28;20550;-84
2021/09/15 03:20:31;;;;;;;1.50;0.90;;;20.70;98.20;;;;;;4951293;29;20479;-83
2021/09/15 03:23:00;;;;;;;1.50;0.90;;;20.70;98.20;;;;;;4958019;28;20510;-83
2021/09/15 03:25:26;;;;;;;1.50;0.90;;;20.70;98.20;;;;;;4957812;28;20466;-82
2021/09/15 03:27:53;;;;;;;1.50;0.90;;;20.70;98.20;;;;;;4942564;28;20850;-83
2021/09/15 03:30:20;;;;;;;1.50;0.90;;;20.70;98.20;;;;;;4949735;28;20475;-83
2021/09/15 03:32:47;;;;;;;1.50;1.00;;;20.70;98.20;;;;;;4955197;28;20478;-83
2021/09/15 03:35:13;;;;;;;1.50;0.90;;;20.70;98.20;;;;;;4951154;28;20854;-82
2021/09/15 03:37:40;;;;;;;1.50;1.00;;;20.70;98.20;;;;;;4944184;28;20482;-82
2021/09/15 03:40:10;;;;;;;1.50;0.90;;;20.70;98.20;;;;;;4951946;28;20483;-82
2021/09/15 03:42:37;;;;;;;1.50;0.90;;;20.70;98.20;;;;;;4954200;28;20469;-82
2021/09/15 03:45:05;;;;;;;1.53;0.90;;;20.70;98.20;;;;;;4957566;28;20474;-82
2021/09/15 03:47:32;;;;;;;1.50;0.97;;;20.70;98.20;;;;;;4954894;28;20486;-82
2021/09/15 03:49:59;;;;;;;1.50;1.00;;;20.70;98.20;;;;;;4953032;28;20478;-82
2021/09/15 03:52:26;;;;;;;1.50;0.90;;;20.70;98.20;;;;;;4965775;28;20480;-82
2021/09/15 03:54:52;;;;;;;1.50;0.90;;;20.70;98.20;;;;;;4951769;28;20468;-82
2021/09/15 03:57:20;;;;;;;1.50;0.90;;;20.60;98.20;;;;;;4928300;28;1089154;-82
2021/09/15 03:59:47;;;;;;;1.50;0.90;;;20.60;98.20;;;;;;4956928;28;20486;-81
2021/09/15 04:02:14;;;;;;;1.50;1.00;;;20.60;98.20;;;;;;4958931;28;20574;-81
2021/09/15 04:04:41;;;;;;;1.50;1.00;;;20.60;98.20;;;;;;4953222;28;20470;-82
2021/09/15 04:07:08;;;;;;;1.50;0.97;;;20.60;98.20;;;;;;4958196;28;21016;-82
2021/09/15 04:09:34;;;;;;;4.33;1.77;;;20.70;98.20;;;;;;4950934;28;20558;-82
2021/09/15 04:12:01;;;;;;;1.50;0.90;;;20.60;98.20;;;;;;4944832;28;20492;-81
2021/09/15 04:14:29;;;;;;;1.50;1.00;;;20.60;98.20;;;;;;4960533;28;20474;-80
2021/09/15 04:16:56;;;;;;;1.50;0.90;;;20.60;98.20;;;;;;4947817;28;20580;-81
2021/09/15 04:19:23;;;;;;;1.50;0.90;;;20.60;98.20;;;;;;4960451;28;20454;-81
2021/09/15 04:21:49;;;;;;;1.50;1.00;;;20.60;98.20;;;;;;4936650;28;20491;-81
2021/09/15 04:24:35;;;;;;;1.50;1.00;;;20.60;98.20;;;;;;4954676;28;20466;-81
2021/09/15 04:32:32;;;;;;;1.50;0.93;;;20.60;98.20;;;;;;4947244;28;20484;-81
2021/09/15 04:34:59;;;;;;;1.53;0.90;;;20.50;98.20;;;;;;4950400;28;20478;-81
2021/09/15 04:37:26;;;;;;;1.50;0.90;;;20.50;98.20;;;;;;4964445;28;20565;-81
2021/09/15 04:39:53;;;;;;;1.50;0.90;;;20.50;98.20;;;;;;4952905;28;20551;-81
2021/09/15 04:42:20;;;;;;;1.50;1.00;;;20.50;98.20;;;;;;4951392;28;20931;-80
2021/09/15 04:44:48;;;;;;;1.50;0.90;;;20.50;98.20;;;;;;4951166;28;20489;-80
2021/09/15 04:47:15;;;;;;;1.50;0.90;;;20.50;98.20;;;;;;4950113;28;20525;-80
2021/09/15 04:49:42;;;;;;;1.50;0.90;;;20.50;98.20;;;;;;4948744;28;20495;-81
2021/09/15 04:52:09;;;;;;;1.50;0.90;;;20.50;98.20;;;;;;4954705;28;20561;-81
2021/09/15 04:54:40;;;;;;;1.50;0.90;;;20.50;98.20;;;;;;4956479;28;20562;-81
2021/09/15 04:57:07;;;;;;;1.50;1.00;;;20.50;98.20;;;;;;4958005;28;20988;-81
2021/09/15 04:59:36;;;;;;;1.50;1.00;;;20.50;98.20;;;;;;4952031;28;20482;-81
2021/09/15 05:02:10;;;;;;;1.60;1.17;;;20.60;98.20;;;;;;4953433;28;20813;-81
2021/09/15 05:04:37;;;;;;;1.50;1.00;;;20.50;98.20;;;;;;4960978;28;20465;-80
2021/09/15 05:07:05;;;;;;;1.53;1.00;;;20.50;98.20;;;;;;4951213;28;20570;-81
2021/09/15 05:09:32;;;;;;;1.50;0.90;;;20.50;98.20;;;;;;4955317;28;20550;-80
2021/09/15 05:11:59;;;;;;;1.50;0.90;;;20.50;98.20;;;;;;4946785;28;20488;-80
2021/09/15 05:14:26;;;;;;;1.50;0.90;;;20.50;98.20;;;;;;4961724;28;20962;-80
2021/09/15 05:16:54;;;;;;;1.50;0.90;;;20.50;98.20;;;;;;4947802;28;20486;-80
2021/09/15 05:19:25;;;;;;;1.53;0.90;;;20.50;98.20;;;;;;4957367;28;20462;-79
2021/09/15 05:21:53;;;;;;;1.50;1.00;;;20.50;98.20;;;;;;4947183;28;20596;-79
2021/09/15 05:24:22;;;;;;;1.60;1.00;;;20.40;98.20;;;;;;4965563;28;20466;-81
2021/09/15 05:26:50;;;;;;;1.50;0.90;;;20.40;98.20;;;;;;4943666;28;20486;-81
2021/09/15 05:29:17;;;;;;;1.50;0.97;;;20.40;98.20;;;;;;4963596;28;20513;-81
2021/09/15 05:31:54;;;;;;;1.53;1.00;;;20.40;98.20;;;;;;4957898;28;20989;-80
2021/09/15 05:34:23;;;;;;;1.57;0.93;;;20.40;98.20;;;;;;4967337;28;20481;-82
2021/09/15 05:36:50;;;;;;;1.50;0.90;;;20.40;98.20;;;;;;4962633;28;20500;-80
2021/09/15 05:39:21;;;;;;;1.50;0.90;;;20.40;98.20;;;;;;4968067;28;20466;-82
2021/09/15 05:42:32;;;;;;;1.60;1.10;;;20.40;98.20;;;;;;4962964;28;20477;-83
2021/09/15 05:45:03;;;;;;;1.50;0.90;;;20.40;98.20;;;;;;4953286;28;20463;-83
2021/09/15 05:47:37;;;;;;;1.53;0.90;;;20.40;98.20;;;;;;4951527;28;20481;-83
2021/09/15 05:50:13;;;;;;;1.50;0.90;;;20.50;98.20;;;;;;4961355;28;20496;-82
2021/09/15 05:52:40;;;;;;;1.60;1.20;;;20.50;98.20;;;;;;4957548;28;20524;-81
2021/09/15 05:58:01;;;;;;;1.50;0.90;;;20.50;98.20;;;;;;4936110;28;20587;-83
2021/09/15 06:00:38;;;;;;;1.50;0.90;;;20.50;98.20;;;;;;4943392;29;20463;-82
2021/09/15 06:03:29;;;;;;;1.50;0.90;;;20.40;98.20;;;;;;4943116;28;20974;-81
2021/09/15 06:06:01;;;;;;;1.50;0.90;;;20.40;98.20;;;;;;4948292;28;20475;-83
2021/09/15 06:08:28;;;;;;;1.50;0.90;;;20.40;98.20;;;;;;4968546;28;20521;-82
2021/09/15 06:10:56;;;;;;;1.60;1.10;;;20.40;98.20;;;;;;4948411;28;20507;-83
2021/09/15 06:13:23;;;;;;;1.50;0.90;;;20.40;98.20;;;;;;4968805;28;20476;-85
2021/09/15 06:15:50;;;;;;;1.50;1.00;;;20.40;98.20;;;;;;4941498;28;21045;-84
2021/09/15 06:18:17;;;;;;;1.50;0.90;;;20.50;98.20;;;;;;4965251;28;20504;-83
2021/09/15 06:20:45;;;;;;;1.50;0.97;;;20.50;98.20;;;;;;4947844;28;20504;-83
2021/09/15 06:23:13;;;;;;;1.50;0.90;;;20.50;98.20;;;;;;4928755;28;20480;-84
2021/09/15 06:25:42;;;;;;;1.50;1.00;;;20.50;98.20;;;;;;4954667;28;20465;-82
2021/09/15 06:28:10;;;;;;;1.70;1.30;;;20.50;98.20;;;;;;4957194;28;20858;-85
2021/09/15 06:30:37;;;;;;;1.60;1.00;;;20.40;98.20;;;;;;4954497;28;20471;-85
2021/09/15 06:33:04;;;;;;;1.97;1.77;;;20.40;98.20;;;;;;4960945;28;20596;-81
2021/09/15 06:35:31;;;;;;;1.50;0.90;;;20.40;98.20;;;;;;4946301;28;20474;-82
2021/09/15 06:37:58;;;;;;;1.50;0.90;;;20.40;98.20;;;;;;4960801;28;20561;-81
2021/09/15 06:40:27;;;;;;;1.50;0.90;;;20.40;98.20;;;;;;4950466;28;20471;-82
2021/09/15 06:42:54;;;;;;;1.53;1.00;;;20.50;98.20;;;;;;4969957;28;20804;-83
2021/09/15 06:45:21;;;;;;;1.50;0.90;;;20.50;98.20;;;;;;4943568;28;20464;-83
2021/09/15 06:47:47;;;;;;;1.57;0.90;;;20.50;98.20;;;;;;4955558;28;20501;-82
2021/09/15 06:50:18;;;;;;;1.90;1.53;;;20.50;98.20;;;;;;4945837;28;20561;-83
2021/09/15 06:52:45;;;;;;;1.50;1.00;;;20.50;98.20;;;;;;4960396;28;20686;-82
2021/09/15 06:55:12;;;;;;;1.50;0.90;;;20.50;98.20;;;;;;4952207;28;20565;-81
2021/09/15 06:57:40;;;;;;;1.50;0.90;;;20.50;98.20;;;;;;4954445;28;20504;-80
2021/09/15 07:00:10;;;;;;;1.50;0.90;;;20.60;98.20;;;;;;4958809;28;20477;-80
2021/09/15 07:02:37;;;;;;;1.50;1.00;;;20.60;98.20;;;;;;4950188;28;20479;-81
2021/09/15 07:05:05;;;;;;;1.53;1.00;;;20.70;98.20;;;;;;4950077;28;21122;-80
2021/09/15 07:07:33;;;;;;;1.50;0.90;;;20.70;98.20;;;;;;4954395;28;20496;-80
2021/09/15 07:10:00;;;;;;;1.50;0.90;;;20.80;98.20;;;;;;4957501;28;20905;-79
2021/09/15 07:12:27;;;;;;;1.50;0.90;;;20.80;98.20;;;;;;4945435;28;20494;-79
2021/09/15 07:14:55;;;;;;;1.50;0.90;;;20.80;98.20;;;;;;4952136;28;20502;-78
2021/09/15 07:17:22;;;;;;;1.50;1.00;;;20.80;98.20;;;;;;4954510;28;20509;-79
2021/09/15 07:19:49;;;;;;;1.50;0.90;;;20.90;98.20;;;;;;4955949;28;20470;-80
2021/09/15 07:22:16;;;;;;;1.50;0.90;;;20.90;98.20;;;;;;4946231;28;21105;-80
2021/09/15 07:24:43;;;;;;;1.50;0.93;;;20.90;98.20;;;;;;4955418;28;20467;-80
2021/09/15 07:27:10;;;;;;;1.50;0.90;;;20.90;98.20;;;;;;4935728;28;20506;-80
2021/09/15 07:29:37;;;;;;;1.60;1.07;;;21.00;98.20;;;;;;4951965;28;20505;-83
2021/09/15 07:32:06;;;;;;;1.50;0.90;;;21.00;98.20;;;;;;4949406;28;20501;-79
2021/09/15 07:34:35;;;;;;;1.67;1.17;;;21.10;98.20;;;;;;4957777;28;20472;-78
2021/09/15 07:37:02;;;;;;;1.53;0.93;;;21.10;98.20;;;;;;4941768;28;20501;-79
2021/09/15 07:39:29;;;;;;;1.50;0.90;;;21.10;98.20;;;;;;4952230;28;20991;-78
2021/09/15 07:41:55;;;;;;;1.50;0.90;;;21.20;98.20;;;;;;4953844;28;20501;-79
2021/09/15 07:44:22;;;;;;;1.50;0.90;;;21.20;98.20;;;;;;4960281;28;20476;-79
2021/09/15 07:46:49;;;;;;;3.17;1.37;;;21.30;98.20;;;;;;4947486;28;20533;-79
2021/09/15 07:49:17;;;;;;;1.50;0.97;;;21.40;98.20;;;;;;4957296;28;20548;-79
2021/09/15 07:51:44;;;;;;;1.50;0.90;;;21.50;98.20;;;;;;4938428;28;20525;-79
2021/09/15 07:54:11;;;;;;;1.50;0.90;;;21.60;98.20;;;;;;4956996;28;20896;-79
2021/09/15 07:56:38;;;;;;;1.53;0.90;;;21.70;98.20;;;;;;4938606;28;20818;-79
2021/09/15 07:59:05;;;;;;;1.60;1.00;;;21.80;98.20;;;;;;4950391;28;20497;-79
2021/09/15 08:01:32;;;;;;;1.50;0.90;;;21.90;98.20;;;;;;4934063;28;21020;-80
2021/09/15 08:03:58;;;;;;;1.57;0.90;;;22.00;98.20;;;;;;4956005;28;20480;-80
2021/09/15 08:06:27;;;;;;;1.53;1.00;;;22.10;98.20;;;;;;4943958;28;20568;-79
2021/09/15 08:08:54;;;;;;;1.53;0.90;;;22.20;98.20;;;;;;4954137;28;20505;-79
2021/09/15 08:11:21;;;;;;;1.57;0.90;;;22.20;98.20;;;;;;4941023;28;20485;-79
2021/09/15 08:13:48;;;;;;;1.60;1.20;;;22.30;98.20;;;;;;4954887;28;20794;-79
2021/09/15 08:16:15;;;;;;;1.50;0.90;;;22.30;98.20;;;;;;4936721;28;21023;-79
2021/09/15 08:18:41;;;;;;;1.53;1.00;;;22.30;98.20;;;;;;4962666;28;20503;-79
2021/09/15 08:21:08;;;;;;;1.50;0.90;;;22.40;98.20;;;;;;4941508;28;20481;-79
2021/09/15 08:23:37;;;;;;;1.50;0.90;;;22.40;98.20;;;;;;4961353;28;20496;-80
2021/09/15 08:26:04;;;;;;;1.50;1.00;;;22.40;98.20;;;;;;4935830;28;20467;-79
2021/09/15 08:28:36;;;;;;;1.50;0.90;;;22.40;98.20;;;;;;4960746;28;20874;-79
2021/09/15 08:31:02;;;;;;;1.50;0.90;;;22.40;98.20;;;;;;4940857;28;20491;-79
2021/09/15 08:33:29;;;;;;;1.50;0.90;;;22.40;98.20;;;;;;4963795;28;20953;-80
2021/09/15 08:35:56;;;;;;;1.50;0.90;;;22.30;98.20;;;;;;4933135;28;20535;-79
2021/09/15 08:38:23;;;;;;;1.50;0.90;;;22.30;98.20;;;;;;4952668;28;20493;-79
2021/09/15 08:40:55;;;;;;;1.57;1.00;;;22.20;98.20;;;;;;4931007;28;20475;-79
2021/09/15 08:43:23;;;;;;;1.60;1.00;;;22.20;98.20;;;;;;4969764;28;20515;-80
2021/09/15 08:45:50;;;;;;;1.50;0.90;;;22.20;98.20;;;;;;4932679;28;20463;-79
2021/09/15 08:48:21;;;;;;;1.50;0.90;;;22.10;98.20;;;;;;4945277;28;20493;-80
2021/09/15 08:50:50;;;;;;;1.60;1.20;;;22.10;98.20;;;;;;4940729;28;20501;-79
2021/09/15 08:53:18;;;;;;;1.50;0.90;;;22.10;98.20;;;;;;4965341;28;20862;-82
2021/09/15 08:55:46;;;;;;;1.50;0.90;;;22.10;98.20;;;;;;4945069;28;20561;-80
2021/09/15 08:58:15;;;;;;;1.50;0.90;;;22.10;98.20;;;;;;4923492;28;20632;-80
2021/09/15 09:00:42;;;;;;;1.60;1.10;;;22.20;98.20;;;;;;4949124;28;20473;-80
2021/09/15 09:03:09;;;;;;;1.50;0.90;;;22.20;98.20;;;;;;4941207;28;20557;-80
2021/09/15 09:05:37;;;;;;;1.50;0.90;;;22.20;98.20;;;;;;4950313;28;20471;-80
2021/09/15 09:08:17;;;;;;;1.50;0.90;;;22.20;98.20;;;;;;4945143;28;20495;-80
2021/09/15 09:10:52;;;;;;;1.50;0.90;;;22.20;98.20;;;;;;4944709;28;20577;-80
2021/09/15 09:13:20;;;;;;;1.53;0.90;;;22.20;98.20;;;;;;4926735;28;20509;-80
2021/09/15 09:15:47;;;;;;;1.50;0.90;;;22.20;98.20;;;;;;4939347;28;20467;-80
2021/09/15 09:18:17;;;;;;;1.50;0.90;;;22.20;98.20;;;;;;4951796;28;20489;-83
2021/09/15 09:20:44;;;;;;;1.50;0.90;;;22.20;98.20;;;;;;4954893;28;20534;-84
2021/09/15 09:23:14;;;;;;;1.50;0.90;;;22.20;98.20;;;;;;4955788;28;20857;-83
2021/09/15 09:25:43;;;;;;;1.50;0.90;;;22.10;98.20;;;;;;4950111;29;20467;-83
2021/09/15 09:28:34;;;;;;;1.50;0.90;;;22.10;98.20;;;;;;4952677;28;20494;-82
2021/09/15 09:31:03;;;;;;;1.50;0.90;;;22.10;98.20;;;;;;4932481;28;20984;-81
2021/09/15 09:33:30;;;;;;;1.50;0.90;;;22.10;98.20;;;;;;4954984;28;20479;-79
2021/09/15 09:36:01;;;;;;;1.50;0.90;;;22.20;98.20;;;;;;4944011;28;20479;-81
2021/09/15 09:38:31;;;;;;;1.50;0.90;;;22.20;98.20;;;;;;4966149;28;20482;-80
2021/09/15 09:41:03;;;;;;;1.50;0.90;;;22.20;98.20;;;;;;4940763;28;20470;-80
2021/09/15 09:43:34;;;;;;;1.50;0.90;;;22.20;98.20;;;;;;4957850;28;20463;-80
2021/09/15 09:46:01;;;;;;;1.50;0.90;;;22.30;98.20;;;;;;4940729;28;20472;-80
2021/09/15 09:48:33;;;;;;;1.57;1.00;;;22.20;98.20;;;;;;4958055;28;20510;-80
2021/09/15 09:51:01;;;;;;;1.50;0.90;;;22.20;98.20;;;;;;4939158;28;20475;-79
2021/09/15 09:53:28;;;;;;;1.50;0.90;;;22.20;98.20;;;;;;4963562;28;20477;-79
2021/09/15 09:56:00;;;;;;;1.50;0.90;;;22.10;98.20;;;;;;4936177;28;20472;-80
2021/09/15 09:58:28;;;;;;;1.50;0.90;;;22.10;98.20;;;;;;4945177;28;20494;-82
2021/09/15 10:00:59;;;;;;;1.50;0.90;;;22.10;98.20;;;;;;4940227;28;20455;-82
2021/09/15 10:03:26;;;;;;;1.50;0.90;;;22.10;98.20;;;;;;4951078;28;20462;-80
2021/09/15 10:05:53;;;;;;;1.50;0.90;;;22.20;98.20;;;;;;4936928;28;20467;-81
2021/09/15 10:08:22;;;;;;;1.50;0.90;;;22.20;98.20;;;;;;4948339;28;20510;-80
2021/09/15 10:10:51;;;;;;;1.50;0.90;;;22.20;98.20;;;;;;4937968;28;21028;-81
2021/09/15 10:13:19;;;;;;;1.50;0.90;;;22.30;98.20;;;;;;4967402;28;20471;-82
2021/09/15 10:15:50;;;;;;;1.50;0.90;;;22.30;98.20;;;;;;4950473;28;20470;-82
2021/09/15 10:18:21;;;;;;;1.50;0.90;;;22.20;98.20;;;;;;4948627;28;20969;-83
2021/09/15 10:20:51;;;;;;;1.50;0.90;;;22.20;98.20;;;;;;4942828;28;20471;-83
2021/09/15 10:23:39;;;;;;;1.50;0.90;;;22.20;98.20;;;;;;4956623;28;20465;-82
2021/09/15 10:26:31;;;;;;;1.50;0.90;;;22.20;98.20;;;;;;4955931;28;20469;-82
2021/09/15 10:29:33;;;;;;;1.50;0.90;;;22.10;98.20;;;;;;4956107;28;20465;-83
2021/09/15 10:32:03;;;;;;;1.50;0.90;;;22.10;98.20;;;;;;4951864;28;20546;-83
2021/09/15 10:34:54;;;;;;;1.53;0.90;;;22.00;98.20;;;;;;4956588;28;20494;-85
2021/09/15 10:37:52;;;;;;;1.50;0.90;;;22.00;98.20;;;;;;4964392;28;20494;-85
2021/09/15 10:40:43;;;;;;;1.50;0.90;;;21.90;98.20;;;;;;4950967;28;20459;-84
2021/09/15 10:43:42;;;;;;;1.50;0.90;;;21.80;98.20;;;;;;4946042;28;20492;-84
2021/09/15 10:46:24;;;;;;;1.50;0.90;;;21.70;98.20;;;;;;4946619;29;20553;-82
2021/09/15 10:49:42;;;;;;;1.50;0.90;;;21.60;98.20;;;;;;4963633;28;21064;-83
2021/09/15 10:52:38;;;;;;;1.50;0.90;;;21.60;98.20;;;;;;4959849;28;20540;-84
2021/09/15 10:55:23;;;;;;;1.50;0.90;;;21.50;98.20;;;;;;4956006;28;20978;-82
2021/09/15 10:57:51;;;;;;;1.57;0.93;;;21.50;98.20;;;;;;4938369;28;20491;-83
2021/09/15 11:00:29;;;;;;;1.50;0.90;;;21.50;98.20;;;;;;4952973;29;20502;-85
2021/09/15 11:03:17;;;;;;;1.53;0.90;;;21.40;98.20;;;;;;4944134;28;20492;-84
2021/09/15 11:05:48;;;;;;;1.50;0.90;;;21.40;98.20;;;;;;4960670;28;20495;-84
2021/09/15 11:08:43;;;;;;;1.50;0.90;;;21.30;98.20;;;;;;4939297;28;20486;-84
2021/09/15 11:11:12;;;;;;;1.50;0.90;;;21.30;98.20;;;;;;4938159;28;20519;-83
2021/09/15 11:13:47;;;;;;;1.50;0.90;;;21.30;98.20;;;;;;4966348;28;20628;-82
2021/09/15 11:16:35;;;;;;;1.53;0.90;;;21.30;98.20;;;;;;4937230;28;20485;-82
2021/09/15 11:19:06;;;;;;;1.50;0.90;;;21.40;98.20;;;;;;4964195;28;20468;-83
2021/09/15 11:21:36;;;;;;;1.53;0.90;;;21.40;98.20;;;;;;4949347;28;20579;-84
2021/09/15 11:24:14;;;;;;;1.53;0.90;;;21.50;98.20;;;;;;4961115;28;20548;-84
2021/09/15 11:26:45;;;;;;;1.50;0.90;;;21.50;98.20;;;;;;4939347;28;21033;-83
2021/09/15 11:29:13;;;;;;;1.50;0.90;;;21.50;98.20;;;;;;4959123;28;20551;-83
2021/09/15 11:31:42;;;;;;;1.50;1.00;;;21.50;98.20;;;;;;4948695;28;20520;-83
2021/09/15 11:34:11;;;;;;;1.50;0.90;;;21.60;98.20;;;;;;4952441;28;20577;-84
2021/09/15 11:36:39;;;;;;;1.50;0.90;;;21.60;98.20;;;;;;4945079;28;20977;-83
2021/09/15 11:39:09;;;;;;;1.50;1.00;;;21.60;98.20;;;;;;4949125;28;20553;-83
2021/09/15 11:41:36;;;;;;;1.53;0.90;;;21.70;98.20;;;;;;4938039;28;20482;-83
2021/09/15 11:44:04;;;;;;;1.50;0.90;;;21.70;98.20;;;;;;4953740;28;20558;-83
2021/09/15 11:46:34;;;;;;;1.50;0.90;;;21.80;98.20;;;;;;4942490;28;20633;-83
2021/09/15 11:49:02;;;;;;;1.53;0.90;;;21.90;98.20;;;;;;4958068;28;20966;-82
2021/09/15 11:51:33;;;;;;;1.57;1.00;;;22.10;98.20;;;;;;4938557;28;20489;-82
2021/09/15 11:54:03;;;;;;;1.53;0.90;;;22.30;98.20;;;;;;4959798;28;20576;-83
2021/09/15 11:56:36;;;;;;;1.50;0.90;;;22.50;98.20;;;;;;4936950;28;20564;-82
2021/09/15 11:59:04;;;;;;;1.50;0.90;;;22.60;98.20;;;;;;4960446;28;20471;-81
2021/09/15 12:01:32;;;;;;;1.53;0.90;;;22.80;98.20;;;;;;4939080;28;21023;-81
2021/09/15 12:04:03;;;;;;;1.50;0.97;;;22.90;98.20;;;;;;4952853;28;20574;-81
2021/09/15 12:06:31;;;;;;;1.53;0.90;;;23.00;98.20;;;;;;4938103;28;20487;-81
2021/09/15 12:08:59;;;;;;;1.50;0.90;;;23.00;98.20;;;;;;4968000;28;20541;-81
2021/09/15 12:11:32;;;;;;;1.53;0.90;;;23.00;98.20;;;;;;4938457;28;20581;-83
2021/09/15 12:14:00;;;;;;;1.53;0.90;;;23.10;98.20;;;;;;4948846;28;20497;-81
2021/09/15 12:16:31;;;;;;;1.53;0.90;;;23.10;98.20;;;;;;4943296;28;20482;-82
2021/09/15 12:18:59;;;;;;;1.57;0.90;;;23.10;98.20;;;;;;4959289;28;20565;-82
2021/09/15 12:21:28;;;;;;;1.50;0.90;;;23.00;98.20;;;;;;4933804;28;20485;-82
2021/09/15 12:24:04;;;;;;;1.53;0.90;;;23.00;98.20;;;;;;4961698;28;20474;-81
2021/09/15 12:26:33;;;;;;;1.50;0.90;;;23.10;98.20;;;;;;4932047;28;20563;-81
2021/09/15 12:29:02;;;;;;;1.53;0.90;;;23.20;98.20;;;;;;4962070;28;20489;-81
2021/09/15 12:31:43;;;;;;;1.50;0.90;;;23.30;98.20;;;;;;4944611;28;20482;-80
2021/09/15 12:34:11;;;;;;;1.53;0.90;;;23.40;98.20;;;;;;4956129;28;21831;-80
2021/09/15 12:36:38;;;;;;;1.53;0.90;;;23.50;98.20;;;;;;4936561;28;20487;-80
2021/09/15 12:39:13;;;;;;;1.57;0.90;;;23.70;98.20;;;;;;4941966;28;20943;-80
2021/09/15 12:41:55;;;;;;;1.53;0.90;;;23.70;98.20;;;;;;4942826;28;20485;-80
2021/09/15 12:44:26;;;;;;;1.53;0.90;;;23.70;98.20;;;;;;4948112;28;20494;-80
2021/09/15 12:46:57;;;;;;;1.50;0.90;;;23.80;98.20;;;;;;4941751;28;20609;-80
2021/09/15 12:49:32;;;;;;;1.50;0.90;;;23.90;98.20;;;;;;4948139;28;20961;-79
2021/09/15 12:52:01;;;;;;;1.53;0.80;;;24.10;98.20;;;;;;4943587;28;20576;-79
2021/09/15 12:54:30;;;;;;;1.50;0.90;;;24.10;98.20;;;;;;4962297;28;20475;-79
2021/09/15 12:57:19;;;;;;;1.57;0.90;;;24.20;98.20;;;;;;4944126;28;20518;-79
2021/09/15 12:59:49;;;;;;;1.57;0.90;;;24.30;98.20;;;;;;4949524;28;20500;-79
2021/09/15 13:02:32;;;;;;;1.50;0.90;;;24.30;98.20;;;;;;4949131;28;21011;-79
2021/09/15 13:05:00;;;;;;;1.50;0.90;;;24.30;98.20;;;;;;4955990;28;20481;-79
2021/09/15 13:07:28;;;;;;;1.50;0.90;;;24.30;98.20;;;;;;4948302;28;20493;-79
2021/09/15 13:09:55;;;;;;;1.53;0.90;;;24.30;98.20;;;;;;4948579;28;20535;-80